Time;durP1;ratioP1;P1;durP2;ratioP2;P2;SDS_P1;SDS_P2;PMS_P1;PMS_P2;Temp;Humidity;BMP_temperature;BMP_pressure;BME280_temperature;BME280_humidity;BME280_pressure;Samples;Min_cycle;Max_cycle;Signal;HPM_P1;HPM_P2
2022/03/01 00:00:34;;;;;;;11.20;6.80;;;;;;;-0.25;46.26;99500.22;12759492;23;20432;-80
2022/03/01 00:05:56;;;;;;;14.68;7.03;;;;;;;-0.28;45.86;99506.66;12739171;23;20025;-80
2022/03/01 00:11:17;;;;;;;14.52;7.00;;;;;;;-0.35;46.21;99507.81;12739187;23;20462;-80
2022/03/01 00:17:17;;;;;;;14.80;7.75;;;;;;;-0.40;46.93;99500.25;12738928;23;20428;-80
2022/03/01 00:22:38;;;;;;;12.05;6.88;;;;;;;-0.45;46.82;99490.72;12758887;23;20039;-80
2022/03/01 00:27:59;;;;;;;17.35;7.93;;;;;;;-0.46;46.64;99491.22;12739019;23;20021;-81
2022/03/01 00:33:20;;;;;;;14.13;7.97;;;;;;;-0.57;46.69;99486.31;12738228;23;20071;-80
2022/03/01 00:38:41;;;;;;;16.35;8.15;;;;;;;-0.60;46.99;99482.53;12718911;23;20336;-80
2022/03/01 00:44:06;;;;;;;13.60;6.68;;;;;;;-0.61;47.03;99488.50;12741029;23;20017;-80
2022/03/01 00:49:27;;;;;;;15.43;6.90;;;;;;;-0.65;47.39;99480.47;12739159;23;20313;-80
2022/03/01 00:54:47;;;;;;;16.77;7.82;;;;;;;-0.72;47.21;99469.13;12738465;23;20021;-80
2022/03/01 01:00:12;;;;;;;13.85;7.60;;;;;;;-0.76;46.96;99474.06;12778744;23;20019;-80
2022/03/01 01:05:33;;;;;;;14.25;7.22;;;;;;;-0.82;47.81;99470.47;12759749;23;20021;-80
2022/03/01 01:10:56;;;;;;;14.80;7.32;;;;;;;-0.82;47.11;99465.00;12738458;23;20396;-80
2022/03/01 01:16:17;;;;;;;11.02;6.30;;;;;;;-0.89;47.33;99475.09;12821456;23;20047;-80
2022/03/01 01:27:21;;;;;;;12.95;6.93;;;;;;;-1.02;47.53;99465.69;12782155;23;20087;-80
2022/03/01 01:32:42;;;;;;;13.38;7.85;;;;;;;-1.09;48.10;99458.59;12758271;23;20024;-80
2022/03/01 01:38:14;;;;;;;10.68;6.55;;;;;;;-1.12;47.70;99456.81;12759787;23;20072;-80
2022/03/01 01:43:37;;;;;;;14.57;8.02;;;;;;;-1.21;48.55;99454.16;12764618;23;20017;-80
2022/03/01 01:48:57;;;;;;;14.77;7.95;;;;;;;-1.22;48.64;99453.41;12738061;23;20017;-79
2022/03/01 01:54:18;;;;;;;17.05;8.90;;;;;;;-1.22;48.60;99450.69;12757695;23;20140;-80
2022/03/01 01:59:41;;;;;;;16.17;9.07;;;;;;;-1.19;48.28;99446.97;12757965;23;20019;-80
2022/03/01 02:05:04;;;;;;;14.98;8.90;;;;;;;-1.15;48.64;99441.31;12758681;23;20021;-80
2022/03/01 02:10:57;;;;;;;15.13;8.00;;;;;;;-1.08;49.01;99446.41;12757263;23;20029;-80
2022/03/01 02:16:20;;;;;;;14.27;7.15;;;;;;;-1.04;48.98;99433.28;12802958;23;20071;-80
2022/03/01 02:21:49;;;;;;;12.18;6.60;;;;;;;-1.02;47.84;99432.78;12782937;23;20013;-80
2022/03/01 02:27:09;;;;;;;11.65;6.93;;;;;;;-1.17;48.29;99427.31;12802377;23;20021;-80
2022/03/01 02:32:58;;;;;;;13.20;7.28;;;;;;;-1.21;48.15;99427.53;12757764;23;20503;-80
2022/03/01 02:38:21;;;;;;;15.75;7.63;;;;;;;-1.31;49.28;99426.13;12761214;23;20088;-82
2022/03/01 02:44:10;;;;;;;12.05;7.32;;;;;;;-1.27;48.63;99423.94;12753596;23;20021;-80
2022/03/01 02:49:35;;;;;;;15.55;7.93;;;;;;;-1.25;48.83;99432.44;12741732;23;20465;-80
2022/03/01 02:54:56;;;;;;;14.98;7.15;;;;;;;-1.24;48.87;99435.94;12762276;23;20013;-80
2022/03/01 03:00:23;;;;;;;13.80;7.25;;;;;;;-1.24;49.19;99428.47;12760427;23;20050;-80
2022/03/01 03:06:18;;;;;;;14.68;7.18;;;;;;;-1.31;49.32;99433.59;12771949;23;20451;-80
2022/03/01 03:11:39;;;;;;;12.23;7.60;;;;;;;-1.42;49.31;99431.41;12740610;23;20013;-79
2022/03/01 03:17:33;;;;;;;15.45;7.95;;;;;;;-1.46;49.16;99431.59;12739908;23;20025;-80
2022/03/01 03:22:54;;;;;;;13.43;7.55;;;;;;;-1.48;49.91;99423.09;12760574;23;20083;-80
2022/03/01 03:28:15;;;;;;;13.85;6.80;;;;;;;-1.49;49.38;99443.50;12759574;23;20012;-80
2022/03/01 03:33:35;;;;;;;11.02;6.40;;;;;;;-1.55;49.34;99439.88;12759212;23;20029;-80
2022/03/01 03:39:00;;;;;;;14.40;8.07;;;;;;;-1.65;50.34;99441.22;12761493;23;20333;-80
2022/03/01 03:44:23;;;;;;;17.45;8.60;;;;;;;-1.59;49.72;99446.78;12773623;23;20044;-80
2022/03/01 03:49:47;;;;;;;15.73;7.68;;;;;;;-1.67;50.02;99448.38;12740716;23;20017;-80
2022/03/01 03:55:09;;;;;;;14.35;7.32;;;;;;;-1.73;50.01;99446.31;12739580;23;20017;-80
2022/03/01 04:00:31;;;;;;;16.05;8.20;;;;;;;-1.78;49.94;99446.97;12779729;23;20013;-80
2022/03/01 04:05:52;;;;;;;14.45;7.70;;;;;;;-1.83;50.41;99442.16;12759551;23;20024;-80
2022/03/01 04:11:42;;;;;;;15.68;8.18;;;;;;;-1.82;50.51;99451.13;12755700;23;20499;-80
2022/03/01 04:17:10;;;;;;;14.43;7.40;;;;;;;-1.83;50.59;99452.34;12760267;23;20024;-80
2022/03/01 04:22:34;;;;;;;14.50;8.25;;;;;;;-1.86;50.41;99442.31;12759386;23;20019;-80
2022/03/01 04:27:57;;;;;;;14.35;8.15;;;;;;;-1.85;50.59;99444.56;12759434;23;20040;-80
2022/03/01 04:33:18;;;;;;;13.82;7.90;;;;;;;-1.87;50.87;99449.03;12758305;23;20356;-80
2022/03/01 04:38:42;;;;;;;16.05;8.73;;;;;;;-1.87;50.84;99446.28;12739065;23;20017;-80
2022/03/01 04:44:05;;;;;;;14.05;8.55;;;;;;;-1.87;51.25;99452.50;12779387;23;20316;-80
2022/03/01 04:49:29;;;;;;;17.98;8.77;;;;;;;-1.90;51.13;99453.47;12720299;23;20017;-80
2022/03/01 04:54:51;;;;;;;18.45;8.57;;;;;;;-1.99;51.57;99448.06;12719961;23;20017;-79
2022/03/01 05:00:12;;;;;;;15.10;8.40;;;;;;;-2.07;51.46;99452.38;12779977;23;20017;-79
2022/03/01 05:05:40;;;;;;;17.27;9.23;;;;;;;-2.05;51.50;99452.66;12759137;23;20021;-79
2022/03/01 05:11:09;;;;;;;18.63;8.93;;;;;;;-2.06;50.96;99446.44;12738057;23;20335;-80
2022/03/01 05:16:30;;;;;;;15.18;8.30;;;;;;;-2.09;51.51;99436.41;12758629;23;20028;-80
2022/03/01 05:22:20;;;;;;;16.13;9.65;;;;;;;-2.06;51.11;99435.47;12754978;23;20021;-80
2022/03/01 05:28:14;;;;;;;20.83;10.07;;;;;;;-2.05;51.86;99442.47;12754771;23;20021;-80
2022/03/01 05:33:36;;;;;;;17.33;9.65;;;;;;;-1.94;51.86;99441.16;12759832;23;20365;-78
2022/03/01 05:38:58;;;;;;;19.92;9.65;;;;;;;-1.92;51.43;99436.00;12778942;23;20047;-78
2022/03/01 05:44:22;;;;;;;19.88;9.30;;;;;;;-1.95;51.74;99428.72;12773162;23;20024;-79
2022/03/01 05:49:46;;;;;;;14.35;8.50;;;;;;;-1.91;51.61;99440.25;12761593;23;20172;-78
2022/03/01 05:55:09;;;;;;;17.80;8.70;;;;;;;-1.77;51.65;99445.72;12761610;23;20436;-78
2022/03/01 06:01:01;;;;;;;19.08;9.30;;;;;;;-0.73;51.74;99448.44;12775026;23;20373;-78
2022/03/01 06:06:52;;;;;;;18.02;11.93;;;;;;;1.26;50.12;99449.53;12774234;23;20376;-79
2022/03/01 06:13:54;;;;;;;20.60;11.43;;;;;;;3.40;47.47;99457.81;12760002;23;20099;-79
2022/03/01 06:20:20;;;;;;;21.52;12.55;;;;;;;5.78;44.90;99460.78;12781871;23;20096;-79
2022/03/01 06:26:49;;;;;;;20.60;13.15;;;;;;;7.95;41.55;99469.06;12804723;23;20025;-79
2022/03/01 06:33:10;;;;;;;18.17;11.98;;;;;;;9.59;39.70;99459.25;12777929;23;20057;-77
2022/03/01 06:57:46;;;;;;;15.23;9.88;;;;;;;11.60;36.22;99464.28;12812147;22;20034;-86
2022/03/01 07:03:08;;;;;;;15.43;10.40;;;;;;;14.06;33.99;99464.31;12806629;23;20001;-88
2022/03/01 07:08:30;;;;;;;17.88;10.23;;;;;;;15.93;31.64;99473.22;12812031;23;20017;-85
2022/03/01 07:14:03;;;;;;;15.20;9.93;;;;;;;17.51;25.98;99471.66;12824970;22;20027;31
2022/03/01 07:19:25;;;;;;;16.63;10.00;;;;;;;18.67;24.25;99474.38;12736922;22;20092;-80
2022/03/01 07:24:46;;;;;;;20.70;10.13;;;;;;;18.84;22.00;99476.13;12758572;23;20079;-87
2022/03/01 07:30:08;;;;;;;18.30;10.90;;;;;;;19.99;23.14;99468.19;12776275;23;20336;-88
2022/03/01 07:35:29;;;;;;;17.88;10.98;;;;;;;20.41;19.68;99468.41;12757212;23;20013;-89
2022/03/01 07:40:50;;;;;;;14.27;8.98;;;;;;;20.96;17.40;99469.34;12716217;23;20028;-87
2022/03/01 07:46:13;;;;;;;14.40;8.45;;;;;;;21.13;16.42;99460.34;12778956;23;20021;-89
2022/03/01 07:51:34;;;;;;;10.10;6.93;;;;;;;21.75;16.90;99467.09;12780019;23;20328;-89
2022/03/01 07:56:58;;;;;;;11.45;5.85;;;;;;;21.86;14.66;99460.53;12760305;23;20384;-88
2022/03/01 08:02:19;;;;;;;13.70;6.65;;;;;;;22.56;14.64;99456.84;12777602;23;20024;-85
2022/03/01 08:07:40;;;;;;;9.70;5.72;;;;;;;22.91;14.18;99455.66;12738351;23;20333;-85
2022/03/01 08:13:02;;;;;;;10.85;6.22;;;;;;;22.87;13.75;99435.50;12758415;23;20440;-86
2022/03/01 08:18:23;;;;;;;10.27;6.53;;;;;;;23.31;12.93;99438.91;12756283;23;20317;-84
2022/03/01 08:23:44;;;;;;;12.50;7.55;;;;;;;21.43;13.65;99441.34;12779412;23;20024;-81
2022/03/01 08:29:04;;;;;;;11.45;7.72;;;;;;;19.95;15.22;99436.03;12779262;23;20025;-80
2022/03/01 08:34:25;;;;;;;11.55;7.40;;;;;;;19.97;14.39;99439.00;12738034;23;20092;-79
2022/03/01 08:39:46;;;;;;;12.60;7.60;;;;;;;18.65;15.74;99433.91;12799354;23;20017;-80
2022/03/01 08:45:07;;;;;;;12.13;7.55;;;;;;;18.10;16.67;99427.56;12779077;23;20020;-80
2022/03/01 08:50:32;;;;;;;10.43;6.40;;;;;;;18.18;17.10;99423.19;12720400;23;20017;-80
2022/03/01 08:56:04;;;;;;;8.18;6.03;;;;;;;18.52;18.10;99416.13;12762611;23;20027;-81
2022/03/01 09:01:24;;;;;;;7.13;5.80;;;;;;;18.98;17.67;99425.31;12758160;23;20328;-83
2022/03/01 09:06:45;;;;;;;8.10;5.63;;;;;;;19.97;16.75;99416.31;12737854;23;20013;-83
2022/03/01 09:12:14;;;;;;;9.73;6.00;;;;;;;22.72;13.80;99408.50;12741686;23;20017;-83
2022/03/01 09:17:37;;;;;;;;;;;;;;;26.38;10.76;99407.69;12738061;23;20048;-84
2022/03/01 09:22:58;;;;;;;13.52;6.20;;;;;;;28.69;9.21;99409.50;12758158;23;19916;-82
2022/03/01 09:28:19;;;;;;;8.82;6.35;;;;;;;31.32;8.88;99393.69;12761983;23;20017;-83
2022/03/01 09:33:42;;;;;;;7.28;5.35;;;;;;;32.69;7.90;99392.63;12740524;23;20021;-87
2022/03/01 09:39:03;;;;;;;6.82;5.10;;;;;;;33.99;6.85;99386.47;12741623;23;20524;-86
2022/03/01 09:44:26;;;;;;;6.82;5.13;;;;;;;33.47;6.84;99390.75;12741783;23;20305;-84
2022/03/01 09:49:47;;;;;;;6.38;5.10;;;;;;;32.72;6.76;99380.38;12741447;23;20021;-83
2022/03/01 09:55:18;;;;;;;6.43;4.88;;;;;;;33.68;6.81;99374.84;12741178;23;20025;-81
2022/03/01 10:00:45;;;;;;;7.80;5.00;;;;;;;32.99;6.68;99366.03;12766599;23;20020;-86
2022/03/01 10:06:08;;;;;;;7.55;5.40;;;;;;;34.96;6.16;99360.16;12716839;23;20052;-83
2022/03/01 10:11:36;;;;;;;6.05;5.13;;;;;;;34.14;6.00;99359.63;12762609;23;20017;-84
2022/03/01 10:16:57;;;;;;;8.38;4.82;;;;;;;35.03;6.37;99348.50;12780639;23;20024;-85
2022/03/01 10:22:20;;;;;;;8.73;5.05;;;;;;;35.73;5.42;99353.13;12736598;23;20025;-82
2022/03/01 10:27:48;;;;;;;8.25;5.40;;;;;;;33.15;5.93;99345.81;12757708;23;20021;-84
2022/03/01 10:33:12;;;;;;;8.95;4.93;;;;;;;33.59;6.49;99341.56;12737266;23;20017;-85
2022/03/01 10:38:39;;;;;;;8.48;5.18;;;;;;;34.26;5.93;99337.88;12758083;23;20059;-87
2022/03/01 10:44:06;;;;;;;8.63;4.78;;;;;;;33.92;5.81;99327.09;12758785;23;20017;-87
2022/03/01 10:49:29;;;;;;;10.35;4.47;;;;;;;33.78;6.00;99314.06;12757082;23;20016;-88
2022/03/01 10:54:50;;;;;;;6.60;4.90;;;;;;;33.36;5.83;99311.16;12757214;23;20021;-84
2022/03/01 11:00:13;;;;;;;9.75;5.18;;;;;;;31.06;6.67;99298.94;12756457;23;20437;-86
2022/03/01 11:05:34;;;;;;;8.93;5.30;;;;;;;25.34;8.36;99295.59;12736406;23;20025;-85
2022/03/01 11:11:15;;;;;;;8.18;5.68;;;;;;;21.75;11.23;99265.31;12768752;23;20017;-87
2022/03/01 11:16:50;;;;;;;7.35;4.63;;;;;;;19.05;13.13;99280.75;12777426;23;20017;-88
2022/03/01 11:22:20;;;;;;;9.13;6.05;;;;;;;17.22;14.68;99266.56;12711629;23;1103363;-77
2022/03/01 11:27:45;;;;;;;7.88;5.45;;;;;;;16.82;15.44;99259.72;12780707;23;20021;-76
2022/03/01 11:33:09;;;;;;;8.70;5.07;;;;;;;16.07;15.58;99246.09;12760496;23;20318;-81
2022/03/01 11:38:32;;;;;;;7.53;5.57;;;;;;;15.58;17.44;99253.16;12777319;23;20017;-80
2022/03/01 11:43:59;;;;;;;6.97;5.18;;;;;;;14.44;18.26;99234.22;12756184;23;20072;-79
2022/03/01 11:49:22;;;;;;;9.23;5.60;;;;;;;14.15;17.81;99214.47;12798318;23;20020;-79
2022/03/01 11:54:56;;;;;;;8.85;5.82;;;;;;;13.86;18.53;99197.50;12782722;23;20096;-76
2022/03/01 12:00:55;;;;;;;9.57;5.88;;;;;;;13.67;19.15;99191.78;12783630;23;20091;-76
2022/03/01 12:06:21;;;;;;;8.73;5.47;;;;;;;12.49;20.40;99191.44;12785860;23;20016;-75
2022/03/01 12:11:47;;;;;;;8.73;6.38;;;;;;;11.66;21.02;99173.19;12761048;23;20017;-78
2022/03/01 12:17:18;;;;;;;9.63;6.10;;;;;;;11.32;21.84;99159.78;12764012;23;20013;-77
2022/03/01 12:22:55;;;;;;;10.18;6.00;;;;;;;11.21;23.30;99154.63;12762574;23;20021;-77
2022/03/01 12:28:17;;;;;;;10.90;6.03;;;;;;;10.97;22.72;99167.19;12765158;23;20017;-77
2022/03/01 12:34:04;;;;;;;10.02;6.05;;;;;;;11.20;23.09;99158.75;12740854;23;20344;-76
2022/03/01 12:39:54;;;;;;;8.30;6.07;;;;;;;10.97;22.88;99142.03;12773409;23;20400;-75
2022/03/01 12:45:15;;;;;;;6.78;4.82;;;;;;;10.58;23.11;99144.22;12781360;23;20236;-75
2022/03/01 12:50:43;;;;;;;9.43;5.65;;;;;;;10.40;24.20;99125.81;12772454;23;20020;-82
2022/03/01 12:56:05;;;;;;;8.43;5.28;;;;;;;10.58;24.35;99130.25;12829504;23;20052;-82
2022/03/01 13:01:25;;;;;;;8.77;4.93;;;;;;;10.75;23.92;99132.44;12828467;23;20005;-83
2022/03/01 13:06:47;;;;;;;10.02;5.60;;;;;;;11.09;24.24;99121.50;12808382;23;20022;-82
2022/03/01 13:12:10;;;;;;;8.35;5.07;;;;;;;11.15;23.63;99108.06;12829250;23;20101;-82
2022/03/01 13:17:31;;;;;;;8.82;5.43;;;;;;;10.77;23.47;99096.31;12828372;23;20013;-82
2022/03/01 13:22:59;;;;;;;9.15;4.82;;;;;;;10.32;24.11;99090.28;12766305;23;20026;-83
2022/03/01 13:28:35;;;;;;;10.90;5.38;;;;;;;10.19;24.25;99084.91;12788470;23;20093;-83
2022/03/01 13:33:57;;;;;;;7.88;6.18;;;;;;;10.39;24.34;99086.00;12809358;23;20061;-84
2022/03/01 13:39:19;;;;;;;8.02;5.53;;;;;;;10.49;24.10;99078.53;12767573;23;20033;-83
2022/03/01 13:44:42;;;;;;;9.30;6.18;;;;;;;10.59;24.13;99071.06;12809148;23;20093;-84
2022/03/01 13:50:05;;;;;;;12.83;6.20;;;;;;;10.49;23.85;99067.34;12768592;23;20024;-84
2022/03/01 13:55:26;;;;;;;12.35;7.03;;;;;;;10.26;24.38;99069.47;12808860;23;20020;-83
2022/03/01 14:00:49;;;;;;;7.22;5.70;;;;;;;10.36;24.69;99053.63;12787642;23;20092;-83
2022/03/01 14:06:11;;;;;;;12.27;6.05;;;;;;;10.03;25.16;99056.28;12771539;23;20070;-83
2022/03/01 14:11:34;;;;;;;14.82;8.77;;;;;;;9.90;25.32;99036.97;12773424;23;20032;-83
2022/03/01 14:16:55;;;;;;;10.77;6.93;;;;;;;9.89;25.01;99040.31;12814126;23;20072;-84
2022/03/01 14:22:16;;;;;;;10.90;7.25;;;;;;;9.49;27.32;99029.00;12798985;23;20009;-83
2022/03/01 14:27:41;;;;;;;11.38;6.80;;;;;;;9.34;26.42;99030.47;12816264;23;19997;-83
2022/03/01 14:33:02;;;;;;;;;;;;;;;8.99;27.51;99023.00;12816616;23;20017;-82
2022/03/01 14:38:25;;;;;;;12.18;7.68;;;;;;;9.10;26.76;99014.28;12818228;23;19914;-84
2022/03/01 14:43:51;;;;;;;14.32;7.45;;;;;;;9.22;27.19;99011.88;12814015;23;20051;-83
2022/03/01 14:49:12;;;;;;;15.40;7.90;;;;;;;9.26;27.75;99006.66;12796157;23;20017;-77
2022/03/01 14:54:41;;;;;;;10.60;7.43;;;;;;;9.18;27.44;99015.03;12762385;23;20143;-77
2022/03/01 15:00:05;;;;;;;12.50;7.75;;;;;;;9.17;27.98;99010.78;12741706;23;20016;-78
2022/03/01 15:05:31;;;;;;;12.85;7.43;;;;;;;9.11;27.73;99010.94;12789995;23;20467;-77
2022/03/01 15:10:52;;;;;;;13.85;7.85;;;;;;;9.12;27.97;99020.03;12740953;23;20021;-77
2022/03/01 15:16:16;;;;;;;11.60;7.78;;;;;;;9.13;27.68;98997.19;12783435;23;20024;-77
2022/03/01 15:21:39;;;;;;;13.88;8.27;;;;;;;9.00;28.22;98999.41;12768197;23;20028;-77
2022/03/01 15:27:32;;;;;;;14.68;7.55;;;;;;;8.92;28.31;98998.66;12781860;23;20017;-77
2022/03/01 15:32:55;;;;;;;14.23;8.95;;;;;;;8.70;28.47;99000.84;12796115;23;20009;-83
2022/03/01 15:38:17;;;;;;;13.93;8.10;;;;;;;8.47;28.77;98997.22;12815618;23;20451;-80
2022/03/01 15:43:38;;;;;;;14.52;8.40;;;;;;;8.40;28.78;99000.72;12837701;23;20475;-84
2022/03/01 15:49:00;;;;;;;14.93;8.65;;;;;;;8.35;28.86;99001.63;12839017;23;20001;-85
2022/03/01 15:54:21;;;;;;;14.45;8.80;;;;;;;8.11;29.25;99000.00;12796592;23;20028;-85
2022/03/01 15:59:42;;;;;;;15.50;8.95;;;;;;;7.92;29.41;98991.94;12817201;23;20044;-85
2022/03/01 16:05:03;;;;;;;11.35;7.47;;;;;;;7.66;29.42;98982.50;12803015;23;20001;-84
2022/03/01 16:10:24;;;;;;;12.77;8.20;;;;;;;7.36;29.87;98983.00;12806464;23;20017;-81
2022/03/01 16:15:46;;;;;;;14.13;7.75;;;;;;;7.13;30.19;98980.03;12805086;23;19998;-83
2022/03/01 16:21:08;;;;;;;18.38;8.40;;;;;;;6.89;30.32;98992.22;12808990;23;20011;-79
2022/03/01 16:26:56;;;;;;;14.18;7.75;;;;;;;6.68;30.68;98991.44;12777411;23;20029;-81
2022/03/01 16:32:17;;;;;;;13.05;8.40;;;;;;;6.44;31.11;98995.22;12751614;23;20043;-77
2022/03/01 16:37:39;;;;;;;17.27;7.95;;;;;;;6.28;30.91;98999.13;12770543;23;20017;-76
2022/03/01 16:43:08;;;;;;;12.65;7.80;;;;;;;6.06;31.35;99008.59;12759583;23;20020;-77
2022/03/01 16:49:01;;;;;;;17.35;8.10;;;;;;;5.86;31.99;98996.13;12758814;23;20021;-77
2022/03/01 16:54:25;;;;;;;16.20;8.70;;;;;;;5.69;32.13;98992.91;12789790;23;20203;-77
2022/03/01 16:59:51;;;;;;;13.02;7.45;;;;;;;5.56;32.53;98993.66;12759190;23;20017;-77
2022/03/01 17:05:12;;;;;;;12.00;7.55;;;;;;;5.39;32.37;98993.94;12760733;23;20021;-76
2022/03/01 17:10:33;;;;;;;13.77;8.20;;;;;;;5.30;32.70;98999.13;12781195;23;20063;-77
2022/03/01 17:15:54;;;;;;;15.52;8.38;;;;;;;5.17;32.85;98999.84;12819892;23;20005;-84
2022/03/01 17:21:15;;;;;;;13.43;7.80;;;;;;;5.22;32.80;99017.66;12793396;23;20021;-79
2022/03/01 17:26:40;;;;;;;15.73;8.82;;;;;;;5.09;32.91;99010.03;12760393;23;20044;-76
2022/03/01 17:32:03;;;;;;;18.08;9.50;;;;;;;5.00;33.75;99008.41;12777965;23;20084;-77
2022/03/01 17:37:24;;;;;;;16.08;8.45;;;;;;;5.02;33.60;99010.63;12792492;23;20320;-77
2022/03/01 17:42:44;;;;;;;17.45;9.82;;;;;;;5.03;33.63;99006.63;12752344;23;20054;-76
2022/03/01 17:48:08;;;;;;;18.65;9.25;;;;;;;4.89;34.21;99003.78;12743426;23;20025;-79
2022/03/01 17:53:29;;;;;;;15.52;9.18;;;;;;;4.86;34.06;98999.31;12768454;23;20021;-80
2022/03/01 17:59:33;;;;;;;15.35;8.77;;;;;;;4.78;34.90;98992.91;12752771;23;20041;-74
2022/03/01 18:04:54;;;;;;;15.02;8.77;;;;;;;4.73;34.51;98987.44;12785743;23;20040;-79
2022/03/01 18:10:15;;;;;;;14.45;8.77;;;;;;;4.65;34.82;98981.78;12773772;23;20309;-80
2022/03/01 18:15:39;;;;;;;15.52;10.38;;;;;;;4.55;34.93;98988.97;12762732;23;20439;-78
2022/03/01 18:21:28;;;;;;;15.95;9.00;;;;;;;4.40;35.35;98986.63;12756099;23;20436;-77
2022/03/01 18:26:49;;;;;;;16.23;9.48;;;;;;;4.31;34.99;98990.53;12762623;23;20084;-77
2022/03/01 18:32:10;;;;;;;17.40;10.00;;;;;;;4.21;35.59;98989.38;12741611;23;20028;-78
2022/03/01 18:37:33;;;;;;;17.35;10.45;;;;;;;4.11;36.10;98987.50;12762737;23;20013;-77
2022/03/01 18:43:22;;;;;;;17.90;10.38;;;;;;;4.02;36.64;98996.91;12772605;23;20336;-77
2022/03/01 18:48:43;;;;;;;18.50;10.93;;;;;;;3.90;36.39;98990.03;12803429;23;20023;-77
2022/03/01 18:54:06;;;;;;;20.05;10.57;;;;;;;3.84;37.00;99003.13;12781217;23;20021;-77
2022/03/01 18:59:27;;;;;;;20.13;11.95;;;;;;;3.81;36.19;99004.19;12801641;23;20084;-77
2022/03/01 19:04:48;;;;;;;18.70;11.52;;;;;;;3.74;36.59;99000.72;12749439;23;20096;-77
2022/03/01 19:10:11;;;;;;;18.35;10.75;;;;;;;3.67;36.54;98997.81;12760947;23;20013;-78
2022/03/01 19:15:33;;;;;;;17.00;10.17;;;;;;;3.58;37.21;99004.41;12761226;23;20059;-77
2022/03/01 19:20:54;;;;;;;16.77;10.65;;;;;;;3.54;37.10;99003.19;12739819;23;20017;-78
2022/03/01 19:26:25;;;;;;;15.55;9.70;;;;;;;3.48;37.01;99000.50;12743239;23;20462;-77
2022/03/01 19:31:46;;;;;;;17.05;10.70;;;;;;;3.34;36.96;99001.63;12738870;23;20075;-77
2022/03/01 19:37:07;;;;;;;14.75;10.38;;;;;;;3.31;37.52;99005.41;12760603;23;20024;-77
2022/03/01 19:42:28;;;;;;;16.52;10.43;;;;;;;3.31;37.49;98997.16;12780159;23;20013;-77
2022/03/01 19:47:51;;;;;;;20.00;11.45;;;;;;;3.28;37.70;98992.63;12759621;23;20021;-77
2022/03/01 19:53:13;;;;;;;22.17;11.68;;;;;;;3.19;37.86;98995.75;12759862;23;20084;-77
2022/03/01 19:58:35;;;;;;;20.33;11.18;;;;;;;3.16;38.35;98995.50;12739424;23;20088;-77
2022/03/01 20:03:58;;;;;;;17.67;10.95;;;;;;;3.19;38.15;98984.72;12753114;23;20016;-78
2022/03/01 20:09:21;;;;;;;19.45;12.70;;;;;;;3.08;38.04;98985.53;12738957;23;20021;-77
2022/03/01 20:14:46;;;;;;;21.75;13.90;;;;;;;2.98;38.84;98982.34;12758592;23;20017;-76
2022/03/01 20:20:35;;;;;;;24.48;15.80;;;;;;;2.93;38.78;98972.13;12746554;23;20387;-78
2022/03/01 20:25:56;;;;;;;27.55;17.35;;;;;;;2.87;39.16;98974.16;12737948;23;20013;-77
2022/03/01 20:31:45;;;;;;;27.33;15.45;;;;;;;2.89;38.78;98963.34;12755260;23;20029;-77
2022/03/01 20:37:09;;;;;;;;;;;;;;;2.80;39.46;98956.16;12762473;23;20092;-77
2022/03/01 20:42:33;;;;;;;21.13;11.93;;;;;;;2.82;39.09;98958.41;12780005;23;19920;-77
2022/03/01 20:47:54;;;;;;;18.07;11.27;;;;;;;2.87;39.13;98941.81;12757093;23;20440;-77
2022/03/01 20:53:48;;;;;;;24.92;12.07;;;;;;;2.96;39.73;98940.75;12756902;23;20307;-79
2022/03/01 20:59:19;;;;;;;23.27;12.75;;;;;;;2.95;39.53;98928.22;12780768;23;20032;-78
2022/03/01 21:04:40;;;;;;;21.17;12.45;;;;;;;2.91;39.46;98925.00;12757670;23;20023;-78
2022/03/01 21:10:03;;;;;;;20.17;12.10;;;;;;;2.83;40.19;98921.31;12736421;23;20041;-79
2022/03/01 21:15:25;;;;;;;22.63;11.70;;;;;;;2.75;40.33;98912.09;12751730;23;20088;-80
2022/03/01 21:20:46;;;;;;;22.85;12.55;;;;;;;2.59;40.14;98906.19;12762243;23;20021;-79
2022/03/01 21:26:07;;;;;;;20.33;12.27;;;;;;;2.49;40.56;98905.00;12775978;23;20014;-78
2022/03/01 21:31:30;;;;;;;17.85;12.15;;;;;;;2.47;40.82;98907.53;12783187;23;20088;-78
2022/03/01 21:36:51;;;;;;;20.05;11.30;;;;;;;2.42;40.41;98900.06;12767029;23;20017;-81
2022/03/01 21:42:14;;;;;;;24.85;14.20;;;;;;;2.35;40.83;98895.09;12760851;23;20444;-80
2022/03/01 21:47:36;;;;;;;24.05;14.13;;;;;;;2.25;41.21;98888.38;12801561;23;20084;-81
2022/03/01 21:52:58;;;;;;;23.63;13.52;;;;;;;2.43;41.03;98887.03;12771360;23;20045;-82
2022/03/01 21:58:23;;;;;;;22.05;12.43;;;;;;;2.52;40.93;98892.97;12754107;23;20017;-83
2022/03/01 22:03:59;;;;;;;23.45;13.20;;;;;;;2.53;40.98;98891.69;12780950;23;20016;-82
2022/03/01 22:09:19;;;;;;;25.35;12.98;;;;;;;2.43;40.84;98890.53;12786288;23;20017;-82
2022/03/01 22:14:40;;;;;;;20.85;12.82;;;;;;;2.30;40.97;98884.84;12745259;23;20021;-82
2022/03/01 22:20:01;;;;;;;21.55;12.95;;;;;;;2.20;41.18;98889.16;12769037;23;20383;-82
2022/03/01 22:25:22;;;;;;;22.65;12.77;;;;;;;2.13;41.22;98878.72;12765785;23;20013;-82
2022/03/01 22:30:43;;;;;;;19.40;11.70;;;;;;;2.13;41.79;98875.94;12767222;23;20021;-82
2022/03/01 22:36:07;;;;;;;24.23;13.20;;;;;;;2.12;41.99;98893.72;12747126;23;20132;-82
2022/03/01 22:41:28;;;;;;;23.63;13.75;;;;;;;2.03;41.78;98883.00;12764389;23;20061;-81
2022/03/01 22:46:49;;;;;;;25.02;14.70;;;;;;;2.01;42.27;98873.25;12745389;23;20025;-82
2022/03/01 22:52:10;;;;;;;23.90;14.00;;;;;;;1.96;41.90;98879.53;12764696;23;20350;-82
2022/03/01 22:57:31;;;;;;;23.33;14.43;;;;;;;2.00;41.85;98877.25;12747251;23;20451;-82
2022/03/01 23:02:53;;;;;;;23.25;13.60;;;;;;;1.94;42.24;98876.56;12748252;23;20380;-82
2022/03/01 23:08:14;;;;;;;28.00;14.50;;;;;;;1.77;42.67;98875.13;12789554;23;20041;-80
2022/03/01 23:13:36;;;;;;;24.90;15.30;;;;;;;1.48;42.59;98876.50;12790016;23;20088;-80
2022/03/01 23:18:57;;;;;;;26.40;14.77;;;;;;;1.39;43.18;98883.78;12789993;23;20033;-80
2022/03/01 23:24:18;;;;;;;23.95;13.88;;;;;;;1.34;43.48;98872.78;12749607;23;20032;-80
2022/03/01 23:29:38;;;;;;;22.58;12.75;;;;;;;1.33;43.04;98874.03;12770499;23;20021;-80
2022/03/01 23:34:59;;;;;;;25.70;13.50;;;;;;;1.30;43.60;98872.31;12751654;23;20387;-80
2022/03/01 23:40:20;;;;;;;31.63;14.55;;;;;;;1.25;43.47;98878.56;12771555;23;20027;-80
2022/03/01 23:45:41;;;;;;;26.08;13.40;;;;;;;1.14;43.60;98866.31;12772234;23;20104;-80
2022/03/01 23:51:02;;;;;;;26.17;13.32;;;;;;;1.04;43.75;98880.84;12751722;23;20088;-80
2022/03/01 23:56:23;;;;;;;29.45;13.88;;;;;;;0.94;44.29;98883.13;12751958;23;20088;-80
